sensor_id;sensor_type;location;lat;lon;timestamp;P1;durP1;ratioP1;P2;durP2;ratioP2
76098;SDS011;64828;49.956;8.636;2024-03-29T00:00:07;3.60;;;1.30;;
76098;SDS011;64828;49.956;8.636;2024-03-29T00:00:23;3.08;;;1.02;;
76098;SDS011;64828;49.956;8.636;2024-03-29T00:00:39;3.43;;;1.03;;
76098;SDS011;64828;49.956;8.636;2024-03-29T00:00:56;3.47;;;1.15;;
76098;SDS011;64828;49.956;8.636;2024-03-29T00:01:12;2.90;;;1.08;;
76098;SDS011;64828;49.956;8.636;2024-03-29T00:01:27;2.63;;;1.00;;
76098;SDS011;64828;49.956;8.636;2024-03-29T00:01:43;3.37;;;1.40;;
76098;SDS011;64828;49.956;8.636;2024-03-29T00:01:58;3.67;;;1.42;;
76098;SDS011;64828;49.956;8.636;2024-03-29T00:02:14;2.85;;;1.05;;
76098;SDS011;64828;49.956;8.636;2024-03-29T00:02:30;3.30;;;1.10;;
76098;SDS011;64828;49.956;8.636;2024-03-29T00:02:46;3.13;;;1.13;;
76098;SDS011;64828;49.956;8.636;2024-03-29T00:03:01;2.67;;;1.02;;
76098;SDS011;64828;49.956;8.636;2024-03-29T00:03:17;3.53;;;1.00;;
76098;SDS011;64828;49.956;8.636;2024-03-29T00:03:33;3.17;;;1.05;;
76098;SDS011;64828;49.956;8.636;2024-03-29T00:03:48;2.72;;;1.00;;
76098;SDS011;64828;49.956;8.636;2024-03-29T00:04:04;1.90;;;1.10;;
76098;SDS011;64828;49.956;8.636;2024-03-29T00:04:20;3.23;;;1.10;;
76098;SDS011;64828;49.956;8.636;2024-03-29T00:04:36;4.18;;;1.00;;
76098;SDS011;64828;49.956;8.636;2024-03-29T00:04:51;4.65;;;1.10;;
76098;SDS011;64828;49.956;8.636;2024-03-29T00:05:07;4.80;;;1.10;;
76098;SDS011;64828;49.956;8.636;2024-03-29T00:05:23;3.30;;;1.00;;
76098;SDS011;64828;49.956;8.636;2024-03-29T00:05:38;2.95;;;1.00;;
76098;SDS011;64828;49.956;8.636;2024-03-29T00:05:54;3.47;;;1.20;;
76098;SDS011;64828;49.956;8.636;2024-03-29T00:06:10;3.30;;;1.10;;
76098;SDS011;64828;49.956;8.636;2024-03-29T00:06:25;2.97;;;0.90;;
76098;SDS011;64828;49.956;8.636;2024-03-29T00:06:41;2.60;;;1.00;;
76098;SDS011;64828;49.956;8.636;2024-03-29T00:06:57;3.17;;;1.00;;
76098;SDS011;64828;49.956;8.636;2024-03-29T00:07:12;4.20;;;1.10;;
76098;SDS011;64828;49.956;8.636;2024-03-29T00:07:28;3.40;;;1.07;;
76098;SDS011;64828;49.956;8.636;2024-03-29T00:07:43;2.67;;;1.00;;
76098;SDS011;64828;49.956;8.636;2024-03-29T00:07:59;2.13;;;0.90;;
76098;SDS011;64828;49.956;8.636;2024-03-29T00:08:15;2.50;;;1.10;;
76098;SDS011;64828;49.956;8.636;2024-03-29T00:08:31;3.65;;;1.10;;
76098;SDS011;64828;49.956;8.636;2024-03-29T00:08:47;3.55;;;0.95;;
76098;SDS011;64828;49.956;8.636;2024-03-29T00:09:02;3.60;;;1.05;;
76098;SDS011;64828;49.956;8.636;2024-03-29T00:09:18;4.43;;;1.10;;
76098;SDS011;64828;49.956;8.636;2024-03-29T00:09:34;3.80;;;1.00;;
76098;SDS011;64828;49.956;8.636;2024-03-29T00:09:50;3.33;;;1.00;;
76098;SDS011;64828;49.956;8.636;2024-03-29T00:10:06;2.88;;;0.95;;
76098;SDS011;64828;49.956;8.636;2024-03-29T00:10:22;3.55;;;1.02;;
76098;SDS011;64828;49.956;8.636;2024-03-29T00:10:37;3.33;;;1.20;;
76098;SDS011;64828;49.956;8.636;2024-03-29T00:10:53;2.73;;;1.20;;
76098;SDS011;64828;49.956;8.636;2024-03-29T00:11:09;4.13;;;1.20;;
76098;SDS011;64828;49.956;8.636;2024-03-29T00:11:25;4.13;;;1.27;;
76098;SDS011;64828;49.956;8.636;2024-03-29T00:11:40;4.03;;;1.30;;
76098;SDS011;64828;49.956;8.636;2024-03-29T00:11:56;3.75;;;1.17;;
76098;SDS011;64828;49.956;8.636;2024-03-29T00:12:12;2.58;;;1.05;;
76098;SDS011;64828;49.956;8.636;2024-03-29T00:12:27;3.00;;;1.00;;
76098;SDS011;64828;49.956;8.636;2024-03-29T00:12:43;2.92;;;1.10;;
76098;SDS011;64828;49.956;8.636;2024-03-29T00:12:59;2.72;;;1.13;;
76098;SDS011;64828;49.956;8.636;2024-03-29T00:13:14;2.88;;;1.15;;
76098;SDS011;64828;49.956;8.636;2024-03-29T00:13:32;3.17;;;1.20;;
76098;SDS011;64828;49.956;8.636;2024-03-29T00:13:48;2.67;;;1.10;;
76098;SDS011;64828;49.956;8.636;2024-03-29T00:14:03;3.53;;;1.25;;
76098;SDS011;64828;49.956;8.636;2024-03-29T00:14:19;3.70;;;1.40;;
76098;SDS011;64828;49.956;8.636;2024-03-29T00:14:35;2.90;;;1.17;;
76098;SDS011;64828;49.956;8.636;2024-03-29T00:14:50;2.90;;;1.02;;
76098;SDS011;64828;49.956;8.636;2024-03-29T00:15:06;2.47;;;1.20;;
76098;SDS011;64828;49.956;8.636;2024-03-29T00:15:22;3.05;;;1.30;;
76098;SDS011;64828;49.956;8.636;2024-03-29T00:15:38;3.70;;;1.30;;
76098;SDS011;64828;49.956;8.636;2024-03-29T00:15:54;2.75;;;1.20;;
76098;SDS011;64828;49.956;8.636;2024-03-29T00:16:09;2.97;;;1.10;;
76098;SDS011;64828;49.956;8.636;2024-03-29T00:16:26;3.40;;;1.20;;
76098;SDS011;64828;49.956;8.636;2024-03-29T00:16:42;2.63;;;1.10;;
76098;SDS011;64828;49.956;8.636;2024-03-29T00:16:58;3.10;;;1.20;;
76098;SDS011;64828;49.956;8.636;2024-03-29T00:17:13;3.67;;;1.30;;
76098;SDS011;64828;49.956;8.636;2024-03-29T00:17:29;3.33;;;1.10;;
76098;SDS011;64828;49.956;8.636;2024-03-29T00:17:45;3.17;;;0.93;;
76098;SDS011;64828;49.956;8.636;2024-03-29T00:18:00;2.87;;;1.00;;
76098;SDS011;64828;49.956;8.636;2024-03-29T00:18:16;4.20;;;1.20;;
76098;SDS011;64828;49.956;8.636;2024-03-29T00:18:32;3.83;;;1.15;;
76098;SDS011;64828;49.956;8.636;2024-03-29T00:18:49;2.38;;;1.00;;
76098;SDS011;64828;49.956;8.636;2024-03-29T00:19:05;3.28;;;1.08;;
76098;SDS011;64828;49.956;8.636;2024-03-29T00:19:20;4.65;;;1.38;;
76098;SDS011;64828;49.956;8.636;2024-03-29T00:19:36;4.40;;;1.30;;
76098;SDS011;64828;49.956;8.636;2024-03-29T00:19:52;4.13;;;1.20;;
76098;SDS011;64828;49.956;8.636;2024-03-29T00:20:07;3.47;;;1.15;;
76098;SDS011;64828;49.956;8.636;2024-03-29T00:20:24;3.10;;;1.30;;
76098;SDS011;64828;49.956;8.636;2024-03-29T00:20:39;4.73;;;1.50;;
76098;SDS011;64828;49.956;8.636;2024-03-29T00:20:55;4.82;;;1.40;;
76098;SDS011;64828;49.956;8.636;2024-03-29T00:21:11;3.45;;;1.20;;
76098;SDS011;64828;49.956;8.636;2024-03-29T00:21:26;3.47;;;1.20;;
76098;SDS011;64828;49.956;8.636;2024-03-29T00:21:42;3.05;;;1.20;;
76098;SDS011;64828;49.956;8.636;2024-03-29T00:21:58;2.65;;;1.20;;
76098;SDS011;64828;49.956;8.636;2024-03-29T00:22:13;2.73;;;1.30;;
76098;SDS011;64828;49.956;8.636;2024-03-29T00:22:29;2.88;;;1.30;;
76098;SDS011;64828;49.956;8.636;2024-03-29T00:22:45;4.05;;;1.60;;
76098;SDS011;64828;49.956;8.636;2024-03-29T00:23:00;5.07;;;1.70;;
76098;SDS011;64828;49.956;8.636;2024-03-29T00:23:16;4.45;;;1.55;;
76098;SDS011;64828;49.956;8.636;2024-03-29T00:23:32;4.53;;;1.50;;
76098;SDS011;64828;49.956;8.636;2024-03-29T00:23:48;5.32;;;1.40;;
76098;SDS011;64828;49.956;8.636;2024-03-29T00:24:06;5.97;;;1.50;;
76098;SDS011;64828;49.956;8.636;2024-03-29T00:24:21;5.00;;;1.40;;
76098;SDS011;64828;49.956;8.636;2024-03-29T00:24:37;3.08;;;1.30;;
76098;SDS011;64828;49.956;8.636;2024-03-29T00:24:52;2.60;;;1.38;;
76098;SDS011;64828;49.956;8.636;2024-03-29T00:25:08;3.27;;;1.30;;
76098;SDS011;64828;49.956;8.636;2024-03-29T00:25:24;3.00;;;1.40;;
76098;SDS011;64828;49.956;8.636;2024-03-29T00:25:40;2.67;;;1.45;;
76098;SDS011;64828;49.956;8.636;2024-03-29T00:25:56;3.50;;;1.42;;
76098;SDS011;64828;49.956;8.636;2024-03-29T00:26:13;4.70;;;1.42;;
76098;SDS011;64828;49.956;8.636;2024-03-29T00:26:28;5.03;;;1.50;;
76098;SDS011;64828;49.956;8.636;2024-03-29T00:26:44;4.33;;;1.43;;
76098;SDS011;64828;49.956;8.636;2024-03-29T00:27:00;3.33;;;1.30;;
76098;SDS011;64828;49.956;8.636;2024-03-29T00:27:17;3.75;;;1.30;;
76098;SDS011;64828;49.956;8.636;2024-03-29T00:27:33;3.20;;;1.33;;
76098;SDS011;64828;49.956;8.636;2024-03-29T00:27:49;2.47;;;1.30;;
76098;SDS011;64828;49.956;8.636;2024-03-29T00:28:04;2.23;;;1.30;;
76098;SDS011;64828;49.956;8.636;2024-03-29T00:28:20;2.80;;;1.10;;
76098;SDS011;64828;49.956;8.636;2024-03-29T00:28:36;3.35;;;1.13;;
76098;SDS011;64828;49.956;8.636;2024-03-29T00:28:53;3.22;;;1.45;;
76098;SDS011;64828;49.956;8.636;2024-03-29T00:29:08;2.67;;;1.37;;
76098;SDS011;64828;49.956;8.636;2024-03-29T00:29:24;3.17;;;1.30;;
76098;SDS011;64828;49.956;8.636;2024-03-29T00:29:41;3.50;;;1.40;;
76098;SDS011;64828;49.956;8.636;2024-03-29T00:29:58;2.92;;;1.30;;
76098;SDS011;64828;49.956;8.636;2024-03-29T00:30:14;3.33;;;1.13;;
76098;SDS011;64828;49.956;8.636;2024-03-29T00:30:30;3.30;;;1.15;;
76098;SDS011;64828;49.956;8.636;2024-03-29T00:30:46;3.97;;;1.30;;
76098;SDS011;64828;49.956;8.636;2024-03-29T00:31:02;4.35;;;1.27;;
76098;SDS011;64828;49.956;8.636;2024-03-29T00:31:17;5.30;;;1.43;;
76098;SDS011;64828;49.956;8.636;2024-03-29T00:31:33;5.30;;;1.55;;
76098;SDS011;64828;49.956;8.636;2024-03-29T00:31:49;3.45;;;1.40;;
76098;SDS011;64828;49.956;8.636;2024-03-29T00:32:04;3.30;;;1.27;;
76098;SDS011;64828;49.956;8.636;2024-03-29T00:32:21;2.72;;;1.10;;
76098;SDS011;64828;49.956;8.636;2024-03-29T00:32:37;2.88;;;1.20;;
76098;SDS011;64828;49.956;8.636;2024-03-29T00:32:53;3.60;;;1.30;;
76098;SDS011;64828;49.956;8.636;2024-03-29T00:33:08;3.20;;;1.10;;
76098;SDS011;64828;49.956;8.636;2024-03-29T00:33:24;3.87;;;1.30;;
76098;SDS011;64828;49.956;8.636;2024-03-29T00:33:40;3.70;;;1.20;;
76098;SDS011;64828;49.956;8.636;2024-03-29T00:33:56;3.58;;;1.10;;
76098;SDS011;64828;49.956;8.636;2024-03-29T00:34:12;4.45;;;1.27;;
76098;SDS011;64828;49.956;8.636;2024-03-29T00:34:27;3.27;;;1.20;;
76098;SDS011;64828;49.956;8.636;2024-03-29T00:34:43;2.92;;;1.20;;
76098;SDS011;64828;49.956;8.636;2024-03-29T00:34:59;2.97;;;1.27;;
76098;SDS011;64828;49.956;8.636;2024-03-29T00:35:15;3.13;;;1.27;;
76098;SDS011;64828;49.956;8.636;2024-03-29T00:35:30;4.47;;;1.23;;
76098;SDS011;64828;49.956;8.636;2024-03-29T00:35:46;4.22;;;1.30;;
76098;SDS011;64828;49.956;8.636;2024-03-29T00:36:05;3.30;;;1.30;;
76098;SDS011;64828;49.956;8.636;2024-03-29T00:36:21;3.35;;;1.10;;
76098;SDS011;64828;49.956;8.636;2024-03-29T00:36:36;3.70;;;1.30;;
76098;SDS011;64828;49.956;8.636;2024-03-29T00:36:52;4.43;;;1.27;;
76098;SDS011;64828;49.956;8.636;2024-03-29T00:37:07;4.23;;;1.10;;
76098;SDS011;64828;49.956;8.636;2024-03-29T00:37:23;3.17;;;1.17;;
76098;SDS011;64828;49.956;8.636;2024-03-29T00:37:39;2.55;;;1.10;;
76098;SDS011;64828;49.956;8.636;2024-03-29T00:37:55;2.33;;;1.20;;
76098;SDS011;64828;49.956;8.636;2024-03-29T00:38:10;3.40;;;1.20;;
76098;SDS011;64828;49.956;8.636;2024-03-29T00:38:26;4.00;;;1.30;;
76098;SDS011;64828;49.956;8.636;2024-03-29T00:38:42;3.53;;;1.27;;
76098;SDS011;64828;49.956;8.636;2024-03-29T00:38:58;3.72;;;1.10;;
76098;SDS011;64828;49.956;8.636;2024-03-29T00:39:13;3.23;;;1.00;;
76098;SDS011;64828;49.956;8.636;2024-03-29T00:39:29;3.05;;;1.20;;
76098;SDS011;64828;49.956;8.636;2024-03-29T00:39:45;3.22;;;1.40;;
76098;SDS011;64828;49.956;8.636;2024-03-29T00:40:01;3.20;;;1.35;;
76098;SDS011;64828;49.956;8.636;2024-03-29T00:40:17;3.40;;;1.45;;
76098;SDS011;64828;49.956;8.636;2024-03-29T00:40:35;4.20;;;1.95;;
76098;SDS011;64828;49.956;8.636;2024-03-29T00:40:51;4.90;;;1.40;;
76098;SDS011;64828;49.956;8.636;2024-03-29T00:41:07;4.75;;;1.23;;
76098;SDS011;64828;49.956;8.636;2024-03-29T00:41:22;4.30;;;1.20;;
76098;SDS011;64828;49.956;8.636;2024-03-29T00:41:38;4.03;;;1.10;;
76098;SDS011;64828;49.956;8.636;2024-03-29T00:41:53;3.90;;;1.33;;
76098;SDS011;64828;49.956;8.636;2024-03-29T00:42:09;4.45;;;1.50;;
76098;SDS011;64828;49.956;8.636;2024-03-29T00:42:27;2.75;;;1.27;;
76098;SDS011;64828;49.956;8.636;2024-03-29T00:42:43;3.63;;;1.30;;
76098;SDS011;64828;49.956;8.636;2024-03-29T00:42:58;3.70;;;1.23;;
76098;SDS011;64828;49.956;8.636;2024-03-29T00:43:14;2.58;;;1.05;;
76098;SDS011;64828;49.956;8.636;2024-03-29T00:43:30;3.13;;;1.00;;
76098;SDS011;64828;49.956;8.636;2024-03-29T00:43:45;3.07;;;1.20;;
76098;SDS011;64828;49.956;8.636;2024-03-29T00:44:01;2.38;;;1.10;;
76098;SDS011;64828;49.956;8.636;2024-03-29T00:44:17;3.30;;;1.10;;
76098;SDS011;64828;49.956;8.636;2024-03-29T00:44:33;4.13;;;1.30;;
76098;SDS011;64828;49.956;8.636;2024-03-29T00:44:50;4.38;;;1.38;;
76098;SDS011;64828;49.956;8.636;2024-03-29T00:45:06;3.70;;;1.30;;
76098;SDS011;64828;49.956;8.636;2024-03-29T00:45:23;2.90;;;1.10;;
76098;SDS011;64828;49.956;8.636;2024-03-29T00:45:38;3.53;;;1.00;;
76098;SDS011;64828;49.956;8.636;2024-03-29T00:45:55;3.28;;;1.15;;
76098;SDS011;64828;49.956;8.636;2024-03-29T00:46:11;3.13;;;1.30;;
76098;SDS011;64828;49.956;8.636;2024-03-29T00:46:26;2.97;;;1.25;;
76098;SDS011;64828;49.956;8.636;2024-03-29T00:46:42;4.40;;;1.10;;
76098;SDS011;64828;49.956;8.636;2024-03-29T00:46:57;4.90;;;1.47;;
76098;SDS011;64828;49.956;8.636;2024-03-29T00:47:14;4.75;;;1.40;;
76098;SDS011;64828;49.956;8.636;2024-03-29T00:47:30;3.97;;;1.10;;
76098;SDS011;64828;49.956;8.636;2024-03-29T00:47:45;3.17;;;1.10;;
76098;SDS011;64828;49.956;8.636;2024-03-29T00:48:01;3.55;;;1.30;;
76098;SDS011;64828;49.956;8.636;2024-03-29T00:48:17;3.20;;;1.30;;
76098;SDS011;64828;49.956;8.636;2024-03-29T00:48:34;2.90;;;1.23;;
76098;SDS011;64828;49.956;8.636;2024-03-29T00:48:50;3.03;;;1.10;;
76098;SDS011;64828;49.956;8.636;2024-03-29T00:49:06;2.73;;;1.10;;
76098;SDS011;64828;49.956;8.636;2024-03-29T00:49:21;3.47;;;1.13;;
76098;SDS011;64828;49.956;8.636;2024-03-29T00:49:37;4.32;;;1.17;;
76098;SDS011;64828;49.956;8.636;2024-03-29T00:49:52;3.40;;;1.17;;
76098;SDS011;64828;49.956;8.636;2024-03-29T00:50:08;4.00;;;1.30;;
76098;SDS011;64828;49.956;8.636;2024-03-29T00:50:24;5.22;;;1.20;;
76098;SDS011;64828;49.956;8.636;2024-03-29T00:50:40;3.38;;;1.00;;
76098;SDS011;64828;49.956;8.636;2024-03-29T00:50:56;2.13;;;1.00;;
76098;SDS011;64828;49.956;8.636;2024-03-29T00:51:11;2.58;;;1.00;;
76098;SDS011;64828;49.956;8.636;2024-03-29T00:51:27;3.10;;;1.10;;
76098;SDS011;64828;49.956;8.636;2024-03-29T00:51:42;2.90;;;1.10;;
76098;SDS011;64828;49.956;8.636;2024-03-29T00:51:58;2.63;;;1.10;;
76098;SDS011;64828;49.956;8.636;2024-03-29T00:52:14;2.70;;;1.20;;
76098;SDS011;64828;49.956;8.636;2024-03-29T00:52:31;2.40;;;1.10;;
76098;SDS011;64828;49.956;8.636;2024-03-29T00:52:46;3.27;;;1.10;;
76098;SDS011;64828;49.956;8.636;2024-03-29T00:53:04;3.63;;;1.10;;
76098;SDS011;64828;49.956;8.636;2024-03-29T00:53:19;3.20;;;1.10;;
76098;SDS011;64828;49.956;8.636;2024-03-29T00:53:35;2.58;;;1.00;;
76098;SDS011;64828;49.956;8.636;2024-03-29T00:53:51;2.83;;;1.10;;
76098;SDS011;64828;49.956;8.636;2024-03-29T00:54:07;3.75;;;1.13;;
76098;SDS011;64828;49.956;8.636;2024-03-29T00:54:22;4.03;;;1.10;;
76098;SDS011;64828;49.956;8.636;2024-03-29T00:54:38;3.50;;;1.15;;
76098;SDS011;64828;49.956;8.636;2024-03-29T00:54:54;2.53;;;1.10;;
76098;SDS011;64828;49.956;8.636;2024-03-29T00:55:10;2.42;;;1.10;;
76098;SDS011;64828;49.956;8.636;2024-03-29T00:55:25;2.60;;;1.10;;
76098;SDS011;64828;49.956;8.636;2024-03-29T00:55:41;2.13;;;1.00;;
76098;SDS011;64828;49.956;8.636;2024-03-29T00:55:57;2.40;;;1.10;;
76098;SDS011;64828;49.956;8.636;2024-03-29T00:56:12;2.88;;;1.10;;
76098;SDS011;64828;49.956;8.636;2024-03-29T00:56:30;3.03;;;0.93;;
76098;SDS011;64828;49.956;8.636;2024-03-29T00:56:46;3.30;;;0.93;;
76098;SDS011;64828;49.956;8.636;2024-03-29T00:57:01;2.90;;;0.90;;
76098;SDS011;64828;49.956;8.636;2024-03-29T00:57:18;1.90;;;0.95;;
76098;SDS011;64828;49.956;8.636;2024-03-29T00:57:34;2.08;;;1.10;;
76098;SDS011;64828;49.956;8.636;2024-03-29T00:57:49;2.30;;;1.10;;
76098;SDS011;64828;49.956;8.636;2024-03-29T00:58:05;3.80;;;1.10;;
76098;SDS011;64828;49.956;8.636;2024-03-29T00:58:21;3.83;;;1.13;;
76098;SDS011;64828;49.956;8.636;2024-03-29T00:58:36;2.85;;;1.25;;
76098;SDS011;64828;49.956;8.636;2024-03-29T00:58:52;2.80;;;1.20;;
76098;SDS011;64828;49.956;8.636;2024-03-29T00:59:07;3.33;;;1.10;;
76098;SDS011;64828;49.956;8.636;2024-03-29T00:59:23;3.83;;;1.00;;
76098;SDS011;64828;49.956;8.636;2024-03-29T00:59:39;2.65;;;0.90;;
76098;SDS011;64828;49.956;8.636;2024-03-29T00:59:55;2.37;;;1.07;;
76098;SDS011;64828;49.956;8.636;2024-03-29T01:00:11;2.58;;;1.10;;
76098;SDS011;64828;49.956;8.636;2024-03-29T01:00:28;2.47;;;1.15;;
76098;SDS011;64828;49.956;8.636;2024-03-29T01:00:43;2.85;;;1.10;;
76098;SDS011;64828;49.956;8.636;2024-03-29T01:00:59;3.17;;;0.93;;
76098;SDS011;64828;49.956;8.636;2024-03-29T01:01:15;3.42;;;1.10;;
76098;SDS011;64828;49.956;8.636;2024-03-29T01:01:31;3.70;;;1.37;;
76098;SDS011;64828;49.956;8.636;2024-03-29T01:01:47;3.53;;;1.17;;
76098;SDS011;64828;49.956;8.636;2024-03-29T01:02:03;2.33;;;1.00;;
76098;SDS011;64828;49.956;8.636;2024-03-29T01:02:19;2.95;;;1.10;;
76098;SDS011;64828;49.956;8.636;2024-03-29T01:02:35;2.67;;;1.10;;
76098;SDS011;64828;49.956;8.636;2024-03-29T01:02:51;2.13;;;0.90;;
76098;SDS011;64828;49.956;8.636;2024-03-29T01:03:06;3.60;;;1.10;;
76098;SDS011;64828;49.956;8.636;2024-03-29T01:03:22;4.80;;;1.27;;
76098;SDS011;64828;49.956;8.636;2024-03-29T01:03:39;4.13;;;1.20;;
76098;SDS011;64828;49.956;8.636;2024-03-29T01:03:54;3.40;;;1.20;;
76098;SDS011;64828;49.956;8.636;2024-03-29T01:04:10;4.20;;;1.25;;
76098;SDS011;64828;49.956;8.636;2024-03-29T01:04:26;3.85;;;1.10;;
76098;SDS011;64828;49.956;8.636;2024-03-29T01:04:42;3.35;;;0.93;;
76098;SDS011;64828;49.956;8.636;2024-03-29T01:04:58;2.58;;;0.90;;
76098;SDS011;64828;49.956;8.636;2024-03-29T01:05:14;1.83;;;0.80;;
76098;SDS011;64828;49.956;8.636;2024-03-29T01:05:29;1.85;;;0.80;;
76098;SDS011;64828;49.956;8.636;2024-03-29T01:05:45;1.95;;;0.80;;
76098;SDS011;64828;49.956;8.636;2024-03-29T01:06:01;2.57;;;0.80;;
76098;SDS011;64828;49.956;8.636;2024-03-29T01:06:16;2.65;;;0.80;;
76098;SDS011;64828;49.956;8.636;2024-03-29T01:06:32;2.33;;;0.93;;
76098;SDS011;64828;49.956;8.636;2024-03-29T01:06:48;2.85;;;1.10;;
76098;SDS011;64828;49.956;8.636;2024-03-29T01:07:04;3.27;;;1.20;;
76098;SDS011;64828;49.956;8.636;2024-03-29T01:07:19;3.65;;;1.02;;
76098;SDS011;64828;49.956;8.636;2024-03-29T01:07:41;3.40;;;0.98;;
76098;SDS011;64828;49.956;8.636;2024-03-29T01:07:57;4.28;;;1.10;;
76098;SDS011;64828;49.956;8.636;2024-03-29T01:08:13;2.63;;;1.00;;
76098;SDS011;64828;49.956;8.636;2024-03-29T01:08:29;2.78;;;1.05;;
76098;SDS011;64828;49.956;8.636;2024-03-29T01:08:45;2.93;;;1.10;;
76098;SDS011;64828;49.956;8.636;2024-03-29T01:09:00;2.28;;;1.00;;
76098;SDS011;64828;49.956;8.636;2024-03-29T01:09:18;1.88;;;0.90;;
76098;SDS011;64828;49.956;8.636;2024-03-29T01:09:33;3.08;;;1.20;;
76098;SDS011;64828;49.956;8.636;2024-03-29T01:09:49;3.47;;;1.30;;
76098;SDS011;64828;49.956;8.636;2024-03-29T01:10:05;2.58;;;0.98;;
76098;SDS011;64828;49.956;8.636;2024-03-29T01:10:21;3.47;;;0.98;;
76098;SDS011;64828;49.956;8.636;2024-03-29T01:10:37;3.90;;;1.00;;
76098;SDS011;64828;49.956;8.636;2024-03-29T01:10:53;2.67;;;0.97;;
76098;SDS011;64828;49.956;8.636;2024-03-29T01:11:08;2.28;;;0.80;;
76098;SDS011;64828;49.956;8.636;2024-03-29T01:11:24;2.88;;;0.80;;
76098;SDS011;64828;49.956;8.636;2024-03-29T01:11:40;2.90;;;0.90;;
76098;SDS011;64828;49.956;8.636;2024-03-29T01:11:55;3.03;;;1.10;;
76098;SDS011;64828;49.956;8.636;2024-03-29T01:12:11;2.97;;;1.30;;
76098;SDS011;64828;49.956;8.636;2024-03-29T01:12:27;2.37;;;1.07;;
76098;SDS011;64828;49.956;8.636;2024-03-29T01:12:42;2.35;;;0.80;;
76098;SDS011;64828;49.956;8.636;2024-03-29T01:12:58;2.30;;;0.80;;
76098;SDS011;64828;49.956;8.636;2024-03-29T01:13:13;2.47;;;0.80;;
76098;SDS011;64828;49.956;8.636;2024-03-29T01:13:30;3.95;;;0.95;;
76098;SDS011;64828;49.956;8.636;2024-03-29T01:13:45;3.80;;;1.08;;
76098;SDS011;64828;49.956;8.636;2024-03-29T01:14:01;2.90;;;1.10;;
76098;SDS011;64828;49.956;8.636;2024-03-29T01:14:16;2.88;;;0.95;;
76098;SDS011;64828;49.956;8.636;2024-03-29T01:14:32;2.90;;;0.90;;
76098;SDS011;64828;49.956;8.636;2024-03-29T01:14:48;2.53;;;0.87;;
76098;SDS011;64828;49.956;8.636;2024-03-29T01:15:04;2.67;;;0.90;;
76098;SDS011;64828;49.956;8.636;2024-03-29T01:15:20;4.45;;;0.90;;
76098;SDS011;64828;49.956;8.636;2024-03-29T01:15:36;4.25;;;0.90;;
76098;SDS011;64828;49.956;8.636;2024-03-29T01:15:51;2.60;;;0.90;;
76098;SDS011;64828;49.956;8.636;2024-03-29T01:16:07;2.30;;;0.80;;
76098;SDS011;64828;49.956;8.636;2024-03-29T01:16:23;2.30;;;0.73;;
76098;SDS011;64828;49.956;8.636;2024-03-29T01:16:39;2.50;;;0.70;;
76098;SDS011;64828;49.956;8.636;2024-03-29T01:16:55;2.72;;;0.80;;
76098;SDS011;64828;49.956;8.636;2024-03-29T01:17:10;2.47;;;0.90;;
76098;SDS011;64828;49.956;8.636;2024-03-29T01:17:26;2.47;;;0.80;;
76098;SDS011;64828;49.956;8.636;2024-03-29T01:17:42;2.30;;;0.82;;
76098;SDS011;64828;49.956;8.636;2024-03-29T01:17:57;2.15;;;0.80;;
76098;SDS011;64828;49.956;8.636;2024-03-29T01:18:13;2.67;;;0.80;;
76098;SDS011;64828;49.956;8.636;2024-03-29T01:18:29;3.10;;;0.80;;
76098;SDS011;64828;49.956;8.636;2024-03-29T01:18:44;2.88;;;0.88;;
76098;SDS011;64828;49.956;8.636;2024-03-29T01:19:00;3.03;;;0.93;;
76098;SDS011;64828;49.956;8.636;2024-03-29T01:19:16;2.67;;;0.80;;
76098;SDS011;64828;49.956;8.636;2024-03-29T01:19:32;2.30;;;0.80;;
76098;SDS011;64828;49.956;8.636;2024-03-29T01:19:48;2.50;;;0.80;;
76098;SDS011;64828;49.956;8.636;2024-03-29T01:20:03;3.55;;;0.80;;
76098;SDS011;64828;49.956;8.636;2024-03-29T01:20:20;3.90;;;0.80;;
76098;SDS011;64828;49.956;8.636;2024-03-29T01:20:36;3.05;;;0.90;;
76098;SDS011;64828;49.956;8.636;2024-03-29T01:20:52;2.78;;;1.00;;
76098;SDS011;64828;49.956;8.636;2024-03-29T01:21:08;3.08;;;0.90;;
76098;SDS011;64828;49.956;8.636;2024-03-29T01:21:24;3.17;;;0.85;;
76098;SDS011;64828;49.956;8.636;2024-03-29T01:21:41;3.95;;;0.93;;
76098;SDS011;64828;49.956;8.636;2024-03-29T01:21:57;2.70;;;0.80;;
76098;SDS011;64828;49.956;8.636;2024-03-29T01:22:12;2.45;;;1.00;;
76098;SDS011;64828;49.956;8.636;2024-03-29T01:22:28;3.47;;;1.20;;
76098;SDS011;64828;49.956;8.636;2024-03-29T01:22:44;2.55;;;0.90;;
76098;SDS011;64828;49.956;8.636;2024-03-29T01:22:59;3.63;;;0.82;;
76098;SDS011;64828;49.956;8.636;2024-03-29T01:23:15;4.13;;;0.90;;
76098;SDS011;64828;49.956;8.636;2024-03-29T01:23:31;2.80;;;0.90;;
76098;SDS011;64828;49.956;8.636;2024-03-29T01:23:47;2.85;;;0.90;;
76098;SDS011;64828;49.956;8.636;2024-03-29T01:24:03;2.70;;;0.80;;
76098;SDS011;64828;49.956;8.636;2024-03-29T01:24:19;2.53;;;0.90;;
76098;SDS011;64828;49.956;8.636;2024-03-29T01:24:35;2.87;;;0.90;;
76098;SDS011;64828;49.956;8.636;2024-03-29T01:24:51;5.70;;;1.17;;
76098;SDS011;64828;49.956;8.636;2024-03-29T01:25:06;4.97;;;1.10;;
76098;SDS011;64828;49.956;8.636;2024-03-29T01:25:24;1.88;;;0.80;;
76098;SDS011;64828;49.956;8.636;2024-03-29T01:25:42;2.17;;;0.90;;
76098;SDS011;64828;49.956;8.636;2024-03-29T01:25:58;2.53;;;0.90;;
76098;SDS011;64828;49.956;8.636;2024-03-29T01:26:13;2.27;;;0.80;;
76098;SDS011;64828;49.956;8.636;2024-03-29T01:26:31;2.30;;;0.88;;
76098;SDS011;64828;49.956;8.636;2024-03-29T01:26:47;2.10;;;0.90;;
76098;SDS011;64828;49.956;8.636;2024-03-29T01:27:03;1.63;;;0.70;;
76098;SDS011;64828;49.956;8.636;2024-03-29T01:27:21;2.13;;;0.90;;
76098;SDS011;64828;49.956;8.636;2024-03-29T01:27:37;2.47;;;0.98;;
76098;SDS011;64828;49.956;8.636;2024-03-29T01:27:52;2.72;;;0.80;;
76098;SDS011;64828;49.956;8.636;2024-03-29T01:28:08;1.97;;;0.70;;
76098;SDS011;64828;49.956;8.636;2024-03-29T01:28:24;2.20;;;0.80;;
76098;SDS011;64828;49.956;8.636;2024-03-29T01:28:39;2.87;;;0.83;;
76098;SDS011;64828;49.956;8.636;2024-03-29T01:28:55;2.90;;;0.90;;
76098;SDS011;64828;49.956;8.636;2024-03-29T01:29:11;2.83;;;0.85;;
76098;SDS011;64828;49.956;8.636;2024-03-29T01:29:27;3.07;;;0.83;;
76098;SDS011;64828;49.956;8.636;2024-03-29T01:29:42;2.75;;;0.80;;
76098;SDS011;64828;49.956;8.636;2024-03-29T01:29:58;2.73;;;0.77;;
76098;SDS011;64828;49.956;8.636;2024-03-29T01:30:14;1.98;;;0.70;;
76098;SDS011;64828;49.956;8.636;2024-03-29T01:30:29;1.50;;;0.70;;
76098;SDS011;64828;49.956;8.636;2024-03-29T01:30:51;2.47;;;0.90;;
76098;SDS011;64828;49.956;8.636;2024-03-29T01:31:08;3.40;;;1.00;;
76098;SDS011;64828;49.956;8.636;2024-03-29T01:31:24;3.50;;;1.30;;
76098;SDS011;64828;49.956;8.636;2024-03-29T01:31:39;4.50;;;1.20;;
76098;SDS011;64828;49.956;8.636;2024-03-29T01:31:55;3.63;;;0.90;;
76098;SDS011;64828;49.956;8.636;2024-03-29T01:32:10;2.13;;;0.85;;
76098;SDS011;64828;49.956;8.636;2024-03-29T01:32:26;2.80;;;0.90;;
76098;SDS011;64828;49.956;8.636;2024-03-29T01:32:42;3.33;;;1.00;;
76098;SDS011;64828;49.956;8.636;2024-03-29T01:32:58;3.05;;;0.90;;
76098;SDS011;64828;49.956;8.636;2024-03-29T01:33:13;2.87;;;0.77;;
76098;SDS011;64828;49.956;8.636;2024-03-29T01:33:30;2.28;;;0.80;;
76098;SDS011;64828;49.956;8.636;2024-03-29T01:33:51;2.70;;;0.90;;
76098;SDS011;64828;49.956;8.636;2024-03-29T01:34:07;3.55;;;1.17;;
76098;SDS011;64828;49.956;8.636;2024-03-29T01:34:22;3.00;;;1.10;;
76098;SDS011;64828;49.956;8.636;2024-03-29T01:34:38;2.75;;;0.70;;
76098;SDS011;64828;49.956;8.636;2024-03-29T01:34:54;3.27;;;0.73;;
76098;SDS011;64828;49.956;8.636;2024-03-29T01:35:10;3.35;;;1.10;;
76098;SDS011;64828;49.956;8.636;2024-03-29T01:35:25;3.13;;;1.17;;
76098;SDS011;64828;49.956;8.636;2024-03-29T01:35:41;2.03;;;0.70;;
76098;SDS011;64828;49.956;8.636;2024-03-29T01:35:57;1.35;;;0.70;;